Aérodrome :
LOGIN :

S'inscrire | Disclaimer

   EN    FR    IT 

 










Légende :    VFR   VFR Marginal   IFR   IFR Intensif   IFR Très Intensif
Visi : 
Plafond : 
>= 8 km
>= 3000ft
5 à 8 km
1000 à 3000 ft
1500m à 5 km
500 à 1000 ft
800 à 1500m
200 à 500 ft
< 800m
< 200 ft
Symboles :   Orages  Brouillard  Fortes neiges  Fortes précipitations  Vent > 20 kt
SIGMETs :   Divers  Orages  Givrage  Turbulence  Onde Orograph.  Cendres Volcan.







- Altitude de l'aérodrome : 1411 ft
- Code IATA : SZG


LOWS - Salzburg

DERNIER METAR :
  • 171820Z 17003KT CAVOK 13/11 Q1020 NOSIG

METARs EXPIRÉS :
  • 171750Z 18004KT 150V220 CAVOK 13/11 Q1020 NOSIG
  • 171720Z 18004KT 150V220 CAVOK 15/12 Q1021 NOSIG
  • 171650Z 15004KT CAVOK 16/11 Q1021 NOSIG
  • 171620Z VRB02KT CAVOK 16/13 Q1021 NOSIG
  • 171550Z VRB02KT CAVOK 18/13 Q1021 NOSIG

TAF TAF LOWS
Valide du 17 à 18h jusqu'au 18 à 18h UTC


171715Z 1718/1818 15005KT CAVOK TX19/1812Z TN14/1804Z
PROB30
TEMPO 1800/1807 VRB02KT 0400 BCFG SCT003
BECMG 1808/1810 34005KT
BECMG 1816/1818 15005KT
Pas de NOTAMs connus pour ce terrain.



MET'MAP, la Météo Aéronautique d'un coup d'oeil ! - Copyright ORBIFLY Décembre 2007 - Disclaimer

ORBIFLY MET'MAP TEAM :

Programmation & Développement : Alexandra Zaïnal
Conception & Développement : Baudouin d'Aumeries
Co-Programmation & Développement : Marc-Olivier Méhu
Soutien technique & logistique : Manuel Goepfert

Contact : metmap@orbifly.com




SOURCES & CREDITS :

   NOAA